Araucaria, Brazil
Current Conditions -  °F | °C
As of 2:00 PM on Thursday 29 Jan 2015 (Local Time) from SBCT Reporting Station
Scattered Clouds Scattered Clouds  
Wind Chill: 25°   Ceiling: Unl
Heat Index: 26°   Visibility: 6mi
Dew Point: 18°   Wind: 13mph
Humidity: 65%   Direction: 300°WNW
Pressure: 29.97"   Gusts: 25mph
Location:  25.58°S, 49.4°W
Report Text: SBCT 291600Z 30011G22KT 9999 SCT030 SCT100 25/18 Q1015
Loading
Personal Weather Stations






























Interactive Weather Map New forecast layout! Learn more

10-Day Weather Forecast

Advertisements
Track Severe Weather on mobile